Time;durP1;ratioP1;P1;durP2;ratioP2;P2;SDS_P1;SDS_P2;PMS_P1;PMS_P2;Temp;Humidity;BMP_temperature;BMP_pressure;BME280_temperature;BME280_humidity;BME280_pressure;Samples;Min_cycle;Max_cycle;Signal;HPM_P1;HPM_P2
2022/05/16 00:01:58;;;;;;;;;;;21.50;50.30;;;;;;475927;249;1208;-39
2022/05/16 00:04:00;;;;;;;;;;;21.50;50.40;;;;;;475630;250;1151;-39
2022/05/16 00:06:01;;;;;;;;;;;21.50;50.40;;;;;;475614;251;2209;-39
2022/05/16 00:08:02;;;;;;;;;;;21.50;50.40;;;;;;475651;249;1194;-39
2022/05/16 00:10:04;;;;;;;;;;;21.50;50.40;;;;;;475694;249;1378;-39
2022/05/16 00:12:05;;;;;;;;;;;21.50;50.40;;;;;;475676;249;1343;-39
2022/05/16 00:14:06;;;;;;;;;;;21.50;50.50;;;;;;475680;251;1241;-39
2022/05/16 00:16:08;;;;;;;;;;;21.50;50.50;;;;;;476122;249;1142;-40
2022/05/16 00:18:09;;;;;;;;;;;21.50;50.40;;;;;;476131;249;1179;-39
2022/05/16 00:20:11;;;;;;;;;;;21.50;50.30;;;;;;475596;251;1280;-39
2022/05/16 00:22:12;;;;;;;;;;;21.50;50.30;;;;;;476053;249;1304;-39
2022/05/16 00:24:13;;;;;;;;;;;21.50;50.30;;;;;;475795;250;1275;-39
2022/05/16 00:26:14;;;;;;;;;;;21.50;50.30;;;;;;475766;250;2196;-39
2022/05/16 00:28:16;;;;;;;;;;;21.50;50.40;;;;;;475600;250;1171;-39
2022/05/16 00:30:18;;;;;;;;;;;21.50;50.40;;;;;;475605;250;1202;-39
2022/05/16 00:32:20;;;;;;;;;;;21.50;50.40;;;;;;475577;250;1173;-39
2022/05/16 00:34:20;;;;;;;;;;;21.50;50.50;;;;;;475808;250;2203;-40
2022/05/16 00:36:21;;;;;;;;;;;21.50;50.50;;;;;;475845;249;1613;-39
2022/05/16 00:38:23;;;;;;;;;;;21.50;50.50;;;;;;475842;250;1371;-39
2022/05/16 00:40:24;;;;;;;;;;;21.40;50.50;;;;;;475919;249;1206;-39
2022/05/16 00:42:25;;;;;;;;;;;21.40;50.50;;;;;;475884;250;1270;-39
2022/05/16 00:44:27;;;;;;;;;;;21.50;50.50;;;;;;475576;250;1375;-39
2022/05/16 00:46:29;;;;;;;;;;;21.50;50.40;;;;;;475782;249;2213;-39
2022/05/16 00:48:29;;;;;;;;;;;21.50;50.40;;;;;;475612;250;2165;-40
2022/05/16 00:50:31;;;;;;;;;;;21.50;50.30;;;;;;475585;249;1245;-39
2022/05/16 00:52:32;;;;;;;;;;;21.50;50.30;;;;;;475862;249;1291;-39
2022/05/16 00:54:33;;;;;;;;;;;21.50;50.40;;;;;;475940;249;1183;-40
2022/05/16 00:56:34;;;;;;;;;;;21.50;50.50;;;;;;475529;249;1406;-39
2022/05/16 00:58:36;;;;;;;;;;;21.50;50.40;;;;;;476055;249;1320;-39
2022/05/16 01:00:38;;;;;;;;;;;21.50;50.50;;;;;;476076;249;1619;-39
2022/05/16 01:04:58;;;;;;;;;;;21.50;50.50;;;;;;476068;250;1320;-39
2022/05/16 01:06:59;;;;;;;;;;;21.50;50.50;;;;;;475591;250;2184;-40
2022/05/16 01:09:00;;;;;;;;;;;21.50;50.40;;;;;;476021;250;1237;-40
2022/05/16 01:11:02;;;;;;;;;;;21.50;50.40;;;;;;475828;249;1196;-39
2022/05/16 01:13:04;;;;;;;;;;;21.50;50.30;;;;;;475778;249;1243;-39
2022/05/16 01:15:04;;;;;;;;;;;21.60;50.30;;;;;;475582;251;1367;-39
2022/05/16 01:17:06;;;;;;;;;;;21.50;50.40;;;;;;475784;249;1405;-39
2022/05/16 01:19:07;;;;;;;;;;;21.50;50.40;;;;;;475614;250;1338;-39
2022/05/16 01:21:08;;;;;;;;;;;21.50;50.40;;;;;;475671;249;1824;-39
2022/05/16 01:23:10;;;;;;;;;;;21.50;50.50;;;;;;475731;250;1711;-39
2022/05/16 01:25:11;;;;;;;;;;;21.50;50.40;;;;;;475552;249;1238;-39
2022/05/16 01:27:12;;;;;;;;;;;21.50;50.40;;;;;;475588;250;2213;-39
2022/05/16 01:29:14;;;;;;;;;;;21.50;50.50;;;;;;475721;249;1523;-39
2022/05/16 01:31:15;;;;;;;;;;;21.50;50.40;;;;;;475759;249;1560;-40
2022/05/16 01:33:16;;;;;;;;;;;21.50;50.50;;;;;;475568;250;1210;-39
2022/05/16 01:35:18;;;;;;;;;;;21.50;50.50;;;;;;475565;251;1699;-39
2022/05/16 01:38:18;;;;;;;;;;;21.50;50.50;;;;;;476000;249;1177;-39
2022/05/16 01:39:20;;;;;;;;;;;21.50;50.50;;;;;;474414;250;1924;-39
2022/05/16 01:41:22;;;;;;;;;;;21.50;50.50;;;;;;475638;250;1393;-39
2022/05/16 01:43:23;;;;;;;;;;;21.50;50.50;;;;;;475762;249;1189;-39
2022/05/16 01:45:24;;;;;;;;;;;21.50;50.50;;;;;;476073;249;1291;-40
2022/05/16 01:47:26;;;;;;;;;;;21.40;50.50;;;;;;476064;249;2133;-39
2022/05/16 01:49:27;;;;;;;;;;;21.50;50.50;;;;;;475987;249;1198;-39
2022/05/16 01:51:28;;;;;;;;;;;21.50;50.50;;;;;;475526;250;1250;-39
2022/05/16 01:53:30;;;;;;;;;;;21.50;50.50;;;;;;475706;249;1193;-39
2022/05/16 01:55:31;;;;;;;;;;;21.50;50.40;;;;;;476001;250;1247;-39
2022/05/16 01:57:32;;;;;;;;;;;21.50;50.40;;;;;;475524;251;1269;-39
2022/05/16 01:59:34;;;;;;;;;;;21.50;50.50;;;;;;476038;249;1224;-39
2022/05/16 02:01:35;;;;;;;;;;;21.40;50.60;;;;;;475717;249;1207;-39
2022/05/16 02:03:36;;;;;;;;;;;21.40;50.60;;;;;;475611;250;1163;-40
2022/05/16 02:05:38;;;;;;;;;;;21.50;50.50;;;;;;475811;250;1276;-39
2022/05/16 02:07:39;;;;;;;;;;;21.40;50.50;;;;;;476023;249;2108;-39
2022/05/16 02:09:40;;;;;;;;;;;21.50;50.50;;;;;;475555;250;1149;-39
2022/05/16 02:11:42;;;;;;;;;;;21.40;50.50;;;;;;475817;249;1259;-39
2022/05/16 02:13:43;;;;;;;;;;;21.40;50.60;;;;;;475675;250;1233;-39
2022/05/16 02:15:44;;;;;;;;;;;21.40;50.50;;;;;;475664;250;1323;-39
2022/05/16 02:17:46;;;;;;;;;;;21.40;50.50;;;;;;475692;250;1260;-39
2022/05/16 02:19:47;;;;;;;;;;;21.40;50.60;;;;;;476084;249;1271;-39
2022/05/16 02:26:37;;;;;;;;;;;21.40;50.50;;;;;;471376;251;2200;-39
2022/05/16 02:28:39;;;;;;;;;;;21.40;50.60;;;;;;475957;249;1203;-39
2022/05/16 02:30:41;;;;;;;;;;;21.40;50.60;;;;;;475906;249;1422;-40
2022/05/16 02:32:41;;;;;;;;;;;21.50;50.60;;;;;;475589;251;2302;-39
2022/05/16 02:34:44;;;;;;;;;;;21.50;50.40;;;;;;476048;249;1530;-39
2022/05/16 02:36:44;;;;;;;;;;;21.50;50.40;;;;;;475636;250;1836;-39
2022/05/16 02:38:45;;;;;;;;;;;21.50;50.40;;;;;;475862;249;1194;-39
2022/05/16 02:40:47;;;;;;;;;;;21.50;50.50;;;;;;476062;249;1232;-39
2022/05/16 02:42:48;;;;;;;;;;;21.50;50.50;;;;;;475855;249;1798;-39
2022/05/16 02:44:52;;;;;;;;;;;21.40;50.50;;;;;;475730;251;1396;-39
2022/05/16 02:46:51;;;;;;;;;;;21.40;50.60;;;;;;475548;250;2185;-39
2022/05/16 02:48:52;;;;;;;;;;;21.50;50.50;;;;;;475840;250;1510;-39
2022/05/16 02:50:53;;;;;;;;;;;21.50;50.50;;;;;;475633;250;1234;-39
2022/05/16 02:52:55;;;;;;;;;;;21.40;50.60;;;;;;475726;249;1624;-39
2022/05/16 02:54:56;;;;;;;;;;;21.40;50.60;;;;;;476064;250;1318;-39
2022/05/16 02:56:58;;;;;;;;;;;21.40;50.60;;;;;;475996;250;1274;-39
2022/05/16 02:58:59;;;;;;;;;;;21.50;50.60;;;;;;475636;251;1270;-39
2022/05/16 03:01:00;;;;;;;;;;;21.50;50.50;;;;;;475634;251;1303;-39
2022/05/16 03:03:02;;;;;;;;;;;21.40;50.50;;;;;;476014;249;1143;-39
2022/05/16 03:05:03;;;;;;;;;;;21.40;50.60;;;;;;476053;250;1255;-39
2022/05/16 03:07:05;;;;;;;;;;;21.50;50.50;;;;;;475858;249;2140;-39
2022/05/16 03:09:06;;;;;;;;;;;21.50;50.50;;;;;;475996;249;1324;-40
2022/05/16 03:11:07;;;;;;;;;;;21.50;50.60;;;;;;475665;251;1491;-39
2022/05/16 03:13:09;;;;;;;;;;;21.40;50.60;;;;;;475650;250;1284;-39
2022/05/16 03:15:10;;;;;;;;;;;21.50;50.60;;;;;;475661;251;1192;-39
2022/05/16 03:17:12;;;;;;;;;;;21.50;50.50;;;;;;475835;249;1293;-39
2022/05/16 03:19:13;;;;;;;;;;;21.50;50.50;;;;;;475655;250;1196;-39
2022/05/16 03:21:15;;;;;;;;;;;21.50;50.50;;;;;;475801;250;1299;-39
2022/05/16 03:23:15;;;;;;;;;;;21.40;50.60;;;;;;475628;250;2280;-39
2022/05/16 03:25:17;;;;;;;;;;;21.50;50.60;;;;;;476027;250;1145;-39
2022/05/16 03:27:18;;;;;;;;;;;21.40;50.70;;;;;;475624;249;2185;-39
2022/05/16 03:29:19;;;;;;;;;;;21.40;50.60;;;;;;476085;249;1280;-39
2022/05/16 03:31:21;;;;;;;;;;;21.40;50.60;;;;;;475611;251;1279;-40
2022/05/16 03:33:22;;;;;;;;;;;21.40;50.60;;;;;;475966;249;1362;-39
2022/05/16 03:35:23;;;;;;;;;;;21.50;50.60;;;;;;475877;250;1285;-40
2022/05/16 03:37:24;;;;;;;;;;;21.50;50.50;;;;;;475835;249;1584;-39
2022/05/16 03:41:45;;;;;;;;;;;21.50;50.60;;;;;;475745;250;1213;-39
2022/05/16 03:43:47;;;;;;;;;;;21.50;50.60;;;;;;475639;251;1214;-39
2022/05/16 03:45:49;;;;;;;;;;;21.40;50.50;;;;;;476128;249;1266;-39
2022/05/16 03:47:49;;;;;;;;;;;21.40;50.60;;;;;;476058;250;2219;-39
2022/05/16 03:49:51;;;;;;;;;;;21.40;50.60;;;;;;475663;250;1293;-39
2022/05/16 03:51:52;;;;;;;;;;;21.40;50.60;;;;;;475989;249;1277;-39
2022/05/16 03:53:53;;;;;;;;;;;21.40;50.50;;;;;;475915;249;1047;-40
2022/05/16 03:55:54;;;;;;;;;;;21.50;50.60;;;;;;475760;250;1201;-40
2022/05/16 03:57:56;;;;;;;;;;;21.50;50.50;;;;;;475595;250;1374;-39
2022/05/16 03:59:57;;;;;;;;;;;21.40;50.60;;;;;;475919;249;1028;-39
2022/05/16 04:01:59;;;;;;;;;;;21.40;50.60;;;;;;475855;250;1097;-39
2022/05/16 04:04:00;;;;;;;;;;;21.50;50.60;;;;;;475679;250;1202;-39
2022/05/16 04:06:02;;;;;;;;;;;21.50;50.50;;;;;;475956;249;1322;-39
2022/05/16 04:08:03;;;;;;;;;;;21.50;50.50;;;;;;475666;250;2196;-39
2022/05/16 04:10:04;;;;;;;;;;;21.50;50.50;;;;;;476131;249;1127;-39
2022/05/16 04:12:06;;;;;;;;;;;21.50;50.60;;;;;;476039;249;1238;-39
2022/05/16 04:14:07;;;;;;;;;;;21.40;50.60;;;;;;475781;250;2454;-39
2022/05/16 04:16:08;;;;;;;;;;;21.40;50.50;;;;;;475780;250;1222;-40
2022/05/16 04:18:09;;;;;;;;;;;21.40;50.60;;;;;;475717;250;1190;-39
2022/05/16 04:20:11;;;;;;;;;;;21.40;50.60;;;;;;475659;251;1280;-39
2022/05/16 04:22:12;;;;;;;;;;;21.40;50.70;;;;;;475873;249;1279;-39
2022/05/16 04:24:13;;;;;;;;;;;21.40;50.70;;;;;;475761;249;1382;-39
2022/05/16 04:26:15;;;;;;;;;;;21.40;50.70;;;;;;475878;249;1283;-39
2022/05/16 04:28:16;;;;;;;;;;;21.40;50.60;;;;;;475616;250;2141;-39
2022/05/16 04:30:17;;;;;;;;;;;21.50;50.60;;;;;;475864;249;1276;-39
2022/05/16 04:32:18;;;;;;;;;;;21.50;50.50;;;;;;476049;249;1198;-39
2022/05/16 04:34:20;;;;;;;;;;;21.40;50.50;;;;;;475853;249;1302;-39
2022/05/16 04:36:21;;;;;;;;;;;21.40;50.60;;;;;;475821;249;1242;-39
2022/05/16 04:38:22;;;;;;;;;;;21.40;50.60;;;;;;475753;250;1260;-39
2022/05/16 04:40:24;;;;;;;;;;;21.40;50.60;;;;;;475589;249;1205;-39
2022/05/16 04:42:41;;;;;;;;;;;21.50;50.60;;;;;;475670;249;1207;-39
2022/05/16 04:44:42;;;;;;;;;;;21.40;50.60;;;;;;475529;249;1218;-39
2022/05/16 04:46:43;;;;;;;;;;;21.40;50.60;;;;;;475364;251;1482;-39
2022/05/16 04:48:45;;;;;;;;;;;21.40;50.60;;;;;;475458;250;2192;-39
2022/05/16 04:50:46;;;;;;;;;;;21.40;50.50;;;;;;475439;251;1531;-39
2022/05/16 04:52:47;;;;;;;;;;;21.50;50.60;;;;;;475478;249;1364;-39
2022/05/16 04:54:49;;;;;;;;;;;21.50;50.50;;;;;;475635;249;1297;-39
2022/05/16 04:56:51;;;;;;;;;;;21.50;50.50;;;;;;475421;251;2001;-39
2022/05/16 04:58:51;;;;;;;;;;;21.40;50.50;;;;;;475350;251;1593;-39
2022/05/16 05:00:53;;;;;;;;;;;21.40;50.60;;;;;;475909;250;1335;-40
2022/05/16 05:02:54;;;;;;;;;;;21.40;50.50;;;;;;475541;249;1283;-39
2022/05/16 05:04:55;;;;;;;;;;;21.50;50.40;;;;;;475467;250;1200;-39
2022/05/16 05:06:57;;;;;;;;;;;21.40;50.50;;;;;;475296;251;1301;-39
2022/05/16 05:08:59;;;;;;;;;;;21.50;50.50;;;;;;475407;251;2220;-39
2022/05/16 05:15:39;;;;;;;;;;;21.50;50.60;;;;;;475508;251;1246;-39
2022/05/16 05:17:40;;;;;;;;;;;21.50;50.60;;;;;;475318;250;1261;-39
2022/05/16 05:19:42;;;;;;;;;;;21.40;50.60;;;;;;475641;249;1341;-39
2022/05/16 05:21:43;;;;;;;;;;;21.40;50.60;;;;;;475482;250;1221;-39
2022/05/16 05:23:45;;;;;;;;;;;21.40;50.60;;;;;;475352;251;1244;-39
2022/05/16 05:25:46;;;;;;;;;;;21.40;50.60;;;;;;475327;249;1233;-39
2022/05/16 05:27:48;;;;;;;;;;;21.40;50.60;;;;;;475293;250;2192;-39
2022/05/16 05:29:49;;;;;;;;;;;21.40;50.60;;;;;;475171;250;2098;-39
2022/05/16 05:31:50;;;;;;;;;;;21.40;50.60;;;;;;475337;250;1247;-39
2022/05/16 05:33:51;;;;;;;;;;;21.40;50.60;;;;;;475564;249;1182;-39
2022/05/16 05:35:52;;;;;;;;;;;21.40;50.50;;;;;;475373;249;1216;-39
2022/05/16 05:37:55;;;;;;;;;;;21.50;50.60;;;;;;475132;251;1257;-39
2022/05/16 05:39:58;;;;;;;;;;;21.50;50.60;;;;;;475296;250;1503;-39
2022/05/16 05:41:57;;;;;;;;;;;21.50;50.40;;;;;;475219;250;2107;-39
2022/05/16 05:43:59;;;;;;;;;;;21.50;50.50;;;;;;475333;250;1194;-39
2022/05/16 05:46:01;;;;;;;;;;;21.50;50.40;;;;;;475117;249;1188;-41
2022/05/16 05:48:02;;;;;;;;;;;21.50;50.40;;;;;;475279;249;2141;-41
2022/05/16 05:50:03;;;;;;;;;;;21.50;50.40;;;;;;475320;250;1288;-41
2022/05/16 05:52:04;;;;;;;;;;;21.40;50.40;;;;;;475190;249;1284;-41
2022/05/16 05:54:06;;;;;;;;;;;21.50;50.40;;;;;;475325;250;1269;-41
2022/05/16 05:56:07;;;;;;;;;;;21.50;50.50;;;;;;475222;250;1187;-41
2022/05/16 05:58:08;;;;;;;;;;;21.50;50.40;;;;;;475492;249;1218;-39
2022/05/16 06:00:10;;;;;;;;;;;21.50;50.30;;;;;;475169;251;1337;-39
2022/05/16 06:02:11;;;;;;;;;;;21.50;50.40;;;;;;474923;249;2259;-39
2022/05/16 06:04:12;;;;;;;;;;;21.50;50.50;;;;;;475231;249;1285;-39
2022/05/16 06:06:14;;;;;;;;;;;21.50;50.50;;;;;;475204;250;1248;-39
2022/05/16 06:08:15;;;;;;;;;;;21.50;50.50;;;;;;475088;251;2212;-39
2022/05/16 06:10:16;;;;;;;;;;;21.50;50.40;;;;;;475202;251;1180;-39
2022/05/16 06:12:18;;;;;;;;;;;21.50;50.50;;;;;;475168;249;1209;-39
2022/05/16 06:14:19;;;;;;;;;;;21.50;50.50;;;;;;475371;249;1470;-39
2022/05/16 06:16:20;;;;;;;;;;;21.50;50.50;;;;;;475084;250;1545;-38
2022/05/16 06:18:22;;;;;;;;;;;21.50;50.40;;;;;;475209;251;1207;-39
2022/05/16 06:20:23;;;;;;;;;;;21.50;50.40;;;;;;475291;249;1162;-39
2022/05/16 06:22:24;;;;;;;;;;;21.60;50.30;;;;;;475215;249;1097;-41
2022/05/16 06:27:01;;;;;;;;;;;21.60;50.40;;;;;;458950;259;1263;-41
2022/05/16 06:29:02;;;;;;;;;;;21.50;50.50;;;;;;467366;251;2193;-41
2022/05/16 06:31:04;;;;;;;;;;;21.50;50.40;;;;;;475154;249;1263;-41
2022/05/16 06:33:05;;;;;;;;;;;21.50;50.40;;;;;;475117;249;1256;-42
2022/05/16 06:35:07;;;;;;;;;;;21.60;50.40;;;;;;475087;251;1148;-41
2022/05/16 06:37:08;;;;;;;;;;;21.50;50.40;;;;;;475206;249;1201;-41
2022/05/16 06:39:09;;;;;;;;;;;21.60;50.40;;;;;;475077;249;1259;-41
2022/05/16 06:41:10;;;;;;;;;;;21.50;50.50;;;;;;475242;249;1284;-41
2022/05/16 06:43:12;;;;;;;;;;;21.50;50.50;;;;;;475068;250;1270;-41
2022/05/16 06:45:13;;;;;;;;;;;21.50;50.50;;;;;;475037;250;1221;-41
2022/05/16 06:47:14;;;;;;;;;;;21.50;50.50;;;;;;474906;251;1236;-41
2022/05/16 06:49:16;;;;;;;;;;;21.40;50.60;;;;;;475685;249;2136;-41
2022/05/16 06:51:17;;;;;;;;;;;21.50;50.70;;;;;;475128;249;1248;-41
2022/05/16 06:53:18;;;;;;;;;;;21.60;50.60;;;;;;474758;250;1237;-42
2022/05/16 06:55:20;;;;;;;;;;;21.50;50.60;;;;;;474862;249;1269;-41
2022/05/16 06:57:21;;;;;;;;;;;21.50;50.60;;;;;;474879;250;1337;-41
2022/05/16 06:59:22;;;;;;;;;;;21.50;50.60;;;;;;474884;249;1191;-41
2022/05/16 07:01:24;;;;;;;;;;;21.50;50.70;;;;;;474840;250;1261;-41
2022/05/16 07:03:25;;;;;;;;;;;21.50;50.70;;;;;;474788;249;1075;-41
2022/05/16 07:05:27;;;;;;;;;;;21.50;50.70;;;;;;474781;250;1296;-41
2022/05/16 07:07:28;;;;;;;;;;;21.50;50.60;;;;;;474823;249;1294;-41
2022/05/16 07:09:29;;;;;;;;;;;21.50;50.60;;;;;;474781;249;2196;-41
2022/05/16 07:11:32;;;;;;;;;;;21.50;50.70;;;;;;474443;249;1226;-41
2022/05/16 07:13:31;;;;;;;;;;;21.50;50.70;;;;;;474850;250;2399;-41
2022/05/16 07:15:33;;;;;;;;;;;21.50;50.70;;;;;;475079;250;1439;-41
2022/05/16 07:17:34;;;;;;;;;;;21.50;50.80;;;;;;475119;251;1236;-42
2022/05/16 07:19:36;;;;;;;;;;;21.50;50.70;;;;;;475497;250;1187;-41
2022/05/16 07:21:38;;;;;;;;;;;21.40;50.80;;;;;;474977;250;2445;-41
2022/05/16 07:23:38;;;;;;;;;;;21.50;50.80;;;;;;475096;250;2413;-41
2022/05/16 07:28:00;;;;;;;;;;;21.50;50.70;;;;;;475111;251;2121;-41
2022/05/16 07:30:01;;;;;;;;;;;21.40;50.80;;;;;;475246;249;1362;-41
2022/05/16 07:32:02;;;;;;;;;;;21.50;50.80;;;;;;475128;250;1239;-41
2022/05/16 07:34:03;;;;;;;;;;;21.50;50.70;;;;;;475432;250;1095;-42
2022/05/16 07:36:05;;;;;;;;;;;21.50;50.70;;;;;;475307;250;1153;-41
2022/05/16 07:38:06;;;;;;;;;;;21.50;50.80;;;;;;475351;250;1111;-41
2022/05/16 07:40:07;;;;;;;;;;;21.50;50.80;;;;;;473296;250;1107;-41
2022/05/16 07:42:09;;;;;;;;;;;21.40;50.80;;;;;;473327;250;1074;-41
2022/05/16 07:44:10;;;;;;;;;;;21.50;50.90;;;;;;472796;252;1166;-41
2022/05/16 07:46:11;;;;;;;;;;;21.40;50.90;;;;;;472742;252;1133;-41
2022/05/16 07:48:13;;;;;;;;;;;21.40;50.90;;;;;;472677;250;2129;-41
2022/05/16 07:50:14;;;;;;;;;;;21.50;50.90;;;;;;472504;250;2071;-41
2022/05/16 07:52:15;;;;;;;;;;;21.50;50.90;;;;;;472461;250;1329;-41
2022/05/16 07:54:17;;;;;;;;;;;21.50;51.00;;;;;;472443;250;1302;-41
2022/05/16 07:56:18;;;;;;;;;;;21.40;50.90;;;;;;472597;250;1243;-41
2022/05/16 07:58:20;;;;;;;;;;;21.40;50.90;;;;;;472637;250;1256;-41
2022/05/16 08:00:22;;;;;;;;;;;21.50;51.00;;;;;;472335;250;1236;-41
2022/05/16 08:02:23;;;;;;;;;;;21.50;51.00;;;;;;472650;250;1205;-42
2022/05/16 08:04:24;;;;;;;;;;;21.50;50.90;;;;;;473289;250;1215;-41
2022/05/16 08:06:27;;;;;;;;;;;21.50;51.00;;;;;;473312;250;1058;-42
2022/05/16 08:10:46;;;;;;;;;;;21.50;51.00;;;;;;473372;251;1345;-41
2022/05/16 08:12:48;;;;;;;;;;;21.40;51.00;;;;;;473235;250;1278;-41
2022/05/16 08:14:49;;;;;;;;;;;21.40;50.90;;;;;;473052;250;1258;-42
2022/05/16 08:16:50;;;;;;;;;;;21.50;51.00;;;;;;472616;250;1248;-41
2022/05/16 08:18:52;;;;;;;;;;;21.50;51.00;;;;;;472790;250;860;-41
2022/05/16 08:20:53;;;;;;;;;;;21.40;51.00;;;;;;473095;250;1346;-41
2022/05/16 08:22:54;;;;;;;;;;;21.50;51.00;;;;;;472839;250;1227;-41
2022/05/16 08:24:56;;;;;;;;;;;21.40;51.10;;;;;;472646;250;1376;-41
2022/05/16 08:26:57;;;;;;;;;;;21.40;51.10;;;;;;472699;250;1055;-41
2022/05/16 08:28:58;;;;;;;;;;;21.40;51.00;;;;;;473117;250;2197;-41
2022/05/16 08:31:00;;;;;;;;;;;21.50;51.10;;;;;;473246;250;1016;-41
2022/05/16 08:33:01;;;;;;;;;;;21.50;51.10;;;;;;472714;250;1087;-41
2022/05/16 08:35:03;;;;;;;;;;;21.40;51.10;;;;;;472641;250;1268;-41
2022/05/16 08:41:43;;;;;;;;;;;21.40;51.10;;;;;;472681;250;1349;-41
2022/05/16 08:43:44;;;;;;;;;;;21.50;51.00;;;;;;472689;250;1016;-41
2022/05/16 08:45:45;;;;;;;;;;;21.50;51.10;;;;;;472844;250;1102;-41
2022/05/16 08:47:47;;;;;;;;;;;21.50;51.20;;;;;;472781;250;1237;-41
2022/05/16 08:49:48;;;;;;;;;;;21.40;51.20;;;;;;473194;250;2208;-41
2022/05/16 08:51:51;;;;;;;;;;;21.40;51.20;;;;;;472925;250;1056;-41
2022/05/16 08:53:51;;;;;;;;;;;21.40;51.20;;;;;;472498;252;1890;-41
2022/05/16 08:55:52;;;;;;;;;;;21.40;51.20;;;;;;473279;250;1056;-41
2022/05/16 08:57:53;;;;;;;;;;;21.40;51.20;;;;;;472868;250;1234;-41
2022/05/16 08:59:55;;;;;;;;;;;21.40;51.20;;;;;;472612;250;1372;-41
2022/05/16 09:01:56;;;;;;;;;;;21.40;51.10;;;;;;472603;250;1205;-41
2022/05/16 09:03:57;;;;;;;;;;;21.40;51.10;;;;;;472568;250;1344;-41
2022/05/16 09:05:59;;;;;;;;;;;21.40;51.20;;;;;;473318;250;1126;-42
2022/05/16 09:08:00;;;;;;;;;;;21.40;51.20;;;;;;472810;250;1173;-41
2022/05/16 09:10:01;;;;;;;;;;;21.40;51.30;;;;;;473109;250;2201;-41
2022/05/16 09:12:03;;;;;;;;;;;21.40;51.40;;;;;;472407;250;1198;-42
2022/05/16 09:14:04;;;;;;;;;;;21.40;51.40;;;;;;472534;250;1298;-41
2022/05/16 09:16:05;;;;;;;;;;;21.40;51.50;;;;;;472601;250;1428;-41
2022/05/16 09:18:06;;;;;;;;;;;21.40;51.30;;;;;;472316;250;1272;-41
2022/05/16 09:20:08;;;;;;;;;;;21.40;51.40;;;;;;472594;250;1208;-41
2022/05/16 09:22:10;;;;;;;;;;;21.40;51.30;;;;;;472389;250;1303;-41
2022/05/16 09:24:11;;;;;;;;;;;21.40;51.50;;;;;;472506;252;1430;-41
2022/05/16 09:26:12;;;;;;;;;;;21.40;51.50;;;;;;472450;250;1190;-41
2022/05/16 09:30:33;;;;;;;;;;;21.40;51.50;;;;;;472351;251;2149;-41
2022/05/16 09:32:34;;;;;;;;;;;21.40;51.40;;;;;;472200;250;1228;-41
2022/05/16 09:34:35;;;;;;;;;;;21.40;51.30;;;;;;472225;250;1131;-42
2022/05/16 09:36:37;;;;;;;;;;;21.50;51.30;;;;;;472203;250;1237;-41
2022/05/16 09:38:43;;;;;;;;;;;21.50;51.30;;;;;;472336;250;1249;-42
2022/05/16 09:40:39;;;;;;;;;;;21.40;51.30;;;;;;471968;252;2121;-41
2022/05/16 09:42:41;;;;;;;;;;;21.40;51.30;;;;;;472902;250;1185;-41
2022/05/16 09:44:42;;;;;;;;;;;21.50;51.20;;;;;;472985;250;1129;-41
2022/05/16 09:46:43;;;;;;;;;;;21.50;51.20;;;;;;472715;250;1265;-41
2022/05/16 09:48:45;;;;;;;;;;;21.50;51.30;;;;;;472862;250;1367;-41
2022/05/16 09:50:46;;;;;;;;;;;21.50;51.30;;;;;;473319;250;1104;-41
2022/05/16 09:52:48;;;;;;;;;;;21.50;51.20;;;;;;472649;250;1229;-41
2022/05/16 09:54:49;;;;;;;;;;;21.50;51.40;;;;;;472673;250;1807;-41
2022/05/16 09:56:50;;;;;;;;;;;21.40;51.30;;;;;;472402;250;1372;-41
2022/05/16 09:58:51;;;;;;;;;;;21.50;51.40;;;;;;473330;250;1069;-41
2022/05/16 10:00:53;;;;;;;;;;;21.50;51.40;;;;;;472580;250;1085;-41
2022/05/16 10:02:54;;;;;;;;;;;21.50;51.40;;;;;;473085;250;1165;-41
2022/05/16 10:04:56;;;;;;;;;;;21.50;51.40;;;;;;473107;250;1203;-41
2022/05/16 10:06:57;;;;;;;;;;;21.50;51.30;;;;;;472326;250;1337;-41
2022/05/16 10:08:58;;;;;;;;;;;21.50;51.40;;;;;;472417;250;2201;-41
2022/05/16 10:11:00;;;;;;;;;;;21.40;51.40;;;;;;472053;250;1335;-41
2022/05/16 10:13:01;;;;;;;;;;;21.50;51.40;;;;;;472556;250;1277;-41
2022/05/16 10:15:02;;;;;;;;;;;21.50;51.30;;;;;;472896;250;1071;-42
2022/05/16 10:17:04;;;;;;;;;;;21.50;51.40;;;;;;472624;250;1585;-41
2022/05/16 10:19:05;;;;;;;;;;;21.40;51.40;;;;;;472612;250;2077;-41
2022/05/16 10:21:08;;;;;;;;;;;21.40;51.50;;;;;;472657;250;1336;-41
2022/05/16 10:23:07;;;;;;;;;;;21.40;51.50;;;;;;472538;252;2324;-41
2022/05/16 10:25:09;;;;;;;;;;;21.50;51.40;;;;;;472644;250;1686;-41
2022/05/16 10:27:11;;;;;;;;;;;21.40;51.50;;;;;;473134;250;1226;-41
2022/05/16 10:29:12;;;;;;;;;;;21.40;51.50;;;;;;472478;250;2201;-42
2022/05/16 10:33:32;;;;;;;;;;;21.40;51.50;;;;;;472553;252;1053;-41
2022/05/16 10:35:33;;;;;;;;;;;21.50;51.50;;;;;;472682;250;1116;-41
2022/05/16 10:37:35;;;;;;;;;;;21.40;51.60;;;;;;472786;250;1204;-41
2022/05/16 10:39:37;;;;;;;;;;;21.40;51.50;;;;;;473191;250;1053;-41
2022/05/16 10:41:38;;;;;;;;;;;21.50;51.50;;;;;;473206;250;1366;-41
2022/05/16 10:43:39;;;;;;;;;;;21.50;51.50;;;;;;472874;250;1062;-41
2022/05/16 10:45:40;;;;;;;;;;;21.50;51.50;;;;;;472611;251;1128;-41
2022/05/16 10:47:42;;;;;;;;;;;21.50;51.40;;;;;;472503;250;1189;-41
2022/05/16 10:49:43;;;;;;;;;;;21.50;51.40;;;;;;472637;250;2204;-41
2022/05/16 10:51:44;;;;;;;;;;;21.50;51.40;;;;;;472641;250;1495;-41
2022/05/16 10:53:48;;;;;;;;;;;21.60;51.30;;;;;;472616;250;1123;-41
2022/05/16 10:55:47;;;;;;;;;;;21.60;51.20;;;;;;472779;250;1352;-41
2022/05/16 10:57:48;;;;;;;;;;;21.60;51.30;;;;;;472688;250;1235;-41
2022/05/16 10:59:50;;;;;;;;;;;21.70;51.20;;;;;;472615;250;1181;-41
2022/05/16 11:01:51;;;;;;;;;;;21.70;51.10;;;;;;471981;250;1067;-41
2022/05/16 11:03:53;;;;;;;;;;;21.70;51.00;;;;;;472331;250;1176;-42
2022/05/16 11:05:54;;;;;;;;;;;21.70;51.00;;;;;;472756;250;1464;-41
2022/05/16 11:07:55;;;;;;;;;;;21.70;51.00;;;;;;472660;250;1101;-41
2022/05/16 11:09:56;;;;;;;;;;;21.80;50.90;;;;;;472905;250;2209;-42
2022/05/16 11:11:58;;;;;;;;;;;21.80;50.90;;;;;;472440;250;1433;-42
2022/05/16 11:14:02;;;;;;;;;;;21.80;50.90;;;;;;472428;250;1246;-41
2022/05/16 11:16:02;;;;;;;;;;;21.90;50.90;;;;;;472458;250;1251;-41
2022/05/16 11:18:03;;;;;;;;;;;21.90;50.80;;;;;;472503;250;1133;-41
2022/05/16 11:20:05;;;;;;;;;;;21.90;50.90;;;;;;472257;250;1169;-41
2022/05/16 11:22:07;;;;;;;;;;;21.90;50.70;;;;;;472187;250;1394;-41
2022/05/16 11:24:08;;;;;;;;;;;21.90;50.70;;;;;;472848;250;1273;-42
2022/05/16 11:26:11;;;;;;;;;;;21.90;50.80;;;;;;472294;250;1259;-39
2022/05/16 11:28:11;;;;;;;;;;;21.90;50.70;;;;;;472681;251;2443;-39
2022/05/16 11:30:13;;;;;;;;;;;21.90;50.80;;;;;;472611;250;2209;-39
2022/05/16 11:32:14;;;;;;;;;;;21.90;50.90;;;;;;472169;252;1833;-39
2022/05/16 11:34:15;;;;;;;;;;;21.90;51.00;;;;;;472332;250;1301;-41
2022/05/16 11:36:17;;;;;;;;;;;21.90;51.00;;;;;;472237;250;1423;-41
2022/05/16 11:38:18;;;;;;;;;;;21.90;51.00;;;;;;472218;250;1265;-41
2022/05/16 11:40:19;;;;;;;;;;;21.80;51.10;;;;;;472352;250;1279;-42
2022/05/16 11:42:20;;;;;;;;;;;21.80;51.10;;;;;;472240;250;1095;-41
2022/05/16 11:44:22;;;;;;;;;;;21.90;51.10;;;;;;472559;250;1071;-41
2022/05/16 11:46:23;;;;;;;;;;;21.90;51.00;;;;;;472446;250;1164;-41
2022/05/16 11:48:24;;;;;;;;;;;21.90;51.10;;;;;;472549;250;1126;-42
2022/05/16 11:50:26;;;;;;;;;;;21.90;51.10;;;;;;472390;250;2197;-41
2022/05/16 11:52:27;;;;;;;;;;;21.90;51.10;;;;;;472347;250;1382;-42
2022/05/16 11:54:29;;;;;;;;;;;21.90;51.00;;;;;;472444;250;1190;-41
2022/05/16 12:01:09;;;;;;;;;;;21.90;51.20;;;;;;472826;251;1395;-41
2022/05/16 12:03:15;;;;;;;;;;;21.90;51.30;;;;;;472585;251;1202;-41
2022/05/16 12:05:12;;;;;;;;;;;21.90;51.20;;;;;;472355;251;2269;-41
2022/05/16 12:07:13;;;;;;;;;;;21.90;51.30;;;;;;472355;250;1105;-41
2022/05/16 12:09:17;;;;;;;;;;;21.90;51.30;;;;;;472677;250;1138;-41
2022/05/16 12:11:19;;;;;;;;;;;21.90;51.40;;;;;;472633;250;2212;-42
2022/05/16 12:13:20;;;;;;;;;;;21.90;51.30;;;;;;472623;250;1209;-41
2022/05/16 12:15:21;;;;;;;;;;;21.90;51.40;;;;;;472652;250;1160;-41
2022/05/16 12:17:23;;;;;;;;;;;21.80;51.40;;;;;;472511;247;1918;-42
2022/05/16 12:19:25;;;;;;;;;;;21.80;51.40;;;;;;472553;250;1334;-41
2022/05/16 12:21:26;;;;;;;;;;;21.80;51.50;;;;;;472482;250;1185;-41
2022/05/16 12:23:27;;;;;;;;;;;21.80;51.50;;;;;;472231;250;1160;-41
2022/05/16 12:25:29;;;;;;;;;;;21.80;51.50;;;;;;472625;250;1082;-41
2022/05/16 12:27:30;;;;;;;;;;;21.80;51.50;;;;;;472553;250;1179;-42
2022/05/16 12:29:32;;;;;;;;;;;21.90;51.50;;;;;;472732;250;1053;-41
2022/05/16 12:31:34;;;;;;;;;;;21.80;51.70;;;;;;472460;250;2201;-41
2022/05/16 12:33:35;;;;;;;;;;;21.80;51.60;;;;;;472479;246;1317;-41